• Join FlightAware (Why Join?)
  • Login
  • US Flag GB Flag 
19:22 EDT


 

Airport Tracker/Info


-or-


 

Live Flight TrackerFlight Track Log ✈ SWA3294 ✈ 06-Apr-2013 ✈ KBWI - KCLE

Flight Track Log - Related Links

Times and Time Zones

All times are in EDT time to prevent confusion due to time zone crossing. See the SWA3294 flight status page for this flight to view local times or setup timezone preferences in your user account.

Time Position Orientation Groundspeed Altitude Reporting Facility
EDT Latitude Longitude Course Direction KTS MPH feet Rate Location/Type
08:50 39.1667 -76.7333 288° West 199 229 1,700  Level Potomac TRACON
08:50 39.1833 -76.8000 288° West 219 252 3,700 2,580 Climbing Potomac TRACON
08:51 39.2167 -76.8833 297° West 263 303 6,700 3,780 Climbing Potomac TRACON
08:52 39.2500 -76.9500 303° West 251 289 10,900 2,940 Climbing Potomac TRACON
08:53 39.2833 -77.0500 293° West 298 343 12,400 2,100 Climbing Potomac TRACON
08:54 39.3167 -77.1667 290° West 340 391 15,200 1,980 Climbing Potomac TRACON
08:57 39.4314 -77.4025 302° West 356 410 19,200 1,680 Climbing Washington Center
08:58 39.4922 -77.5008 309° West 356 410 21,100 2,220 Climbing Washington Center
08:59 39.5553 -77.6047 308° West 356 410 23,700 2,220 Climbing Washington Center
09:00 39.6200 -77.7064 310° West 361 415 25,600 1,680 Climbing Washington Center
09:02 39.7761 -77.9547 309° West 387 445 29,300 1,320 Climbing Cleveland Center
09:03 39.8453 -78.0631 310° West 392 451 30,000 300 Climbing Cleveland Center
09:04 39.9103 -78.1742 307° West 392 451 30,000  Level Cleveland Center
09:05 39.9794 -78.2828 310° West 392 451 30,000  Level Cleveland Center
09:06 40.0483 -78.3944 309° West 393 452 30,000  Level Cleveland Center
09:07 40.1150 -78.5064 308° West 393 452 30,000  Level Cleveland Center
09:08 40.1836 -78.6183 309° West 393 452 30,000  Level Cleveland Center
09:09 40.2500 -78.7278 308° West 388 447 30,000  Level Cleveland Center
09:10 40.3186 -78.8403 309° West 388 447 30,000  Level Cleveland Center
09:11 40.3850 -78.9531 308° West 388 447 30,000  Level Cleveland Center
09:12 40.4469 -79.0689 305° West 388 447 30,000  Level Cleveland Center
09:13 40.5108 -79.1822 307° West 388 447 30,000  Level Cleveland Center
09:14 40.5747 -79.2956 307° West 388 447 30,000  Level Cleveland Center
09:15 40.6406 -79.4092 307° West 388 447 30,000 -360 Level Cleveland Center
09:16 40.7044 -79.5231 307° West 388 447 29,300 -900 Descending Cleveland Center
09:17 40.7678 -79.6372 306° West 383 441 28,300 -960 Descending Cleveland Center
09:18 40.8314 -79.7517 306° West 383 441 27,400 -960 Descending Cleveland Center
09:19 40.8925 -79.8689 305° West 383 441 26,400 -1,020 Descending Cleveland Center
09:20 40.9558 -79.9811 307° West 383 441 25,400 -1,020 Descending Cleveland Center
09:21 41.0208 -80.0989 306° West 388 447 24,400 -720 Descending Cleveland Center
09:22 41.0817 -80.2139 305° West 388 447 24,000 -240 Descending Cleveland Center
09:23 41.1447 -80.3239 307° West 388 447 24,000 -60 Level Cleveland Center
09:24 41.2033 -80.4397 304° West 381 438 23,900 -540 Descending Cleveland Center
09:25 41.2617 -80.5417 307° West 358 412 23,000 -1,500 Descending Cleveland Center
09:26 41.3200 -80.6550 304° West 358 412 20,900 -2,400 Descending Cleveland Center
09:27 41.3700 -80.7769 299° West 352 405 18,200 -2,520 Descending Cleveland Center
09:28 41.4114 -80.8906 296° West 339 390 15,900 -2,400 Descending Cleveland Center
09:29 41.4528 -80.9958 298° West 331 381 13,500 -2,520 Descending Cleveland Center
09:29 41.4631 -81.0292 292° West 317 365 12,600 -3,000 Descending Cleveland Center
09:30 41.4919 -81.1014 298° West 319 367 10,500 -2,640 Descending Cleveland Center
09:30 41.5042 -81.1350 296° West 316 364 10,000 -540 Descending Cleveland Center
09:31 41.5122 -81.2097 278° West 314 361 10,000  Level Cleveland Center
09:31 41.5056 -81.2486 257° West 322 371 10,000 -120 Level Cleveland Center
09:32 41.4947 -81.3289 260° West 315 362 9,900 -120 Descending Cleveland Center
09:32 41.4883 -81.3731 259° West 327 376 9,900  Level Cleveland Center
09:33 41.4772 -81.4450 258° West 320 368 9,900  Level Cleveland Center
09:33 41.4667 -81.4836 250° West 309 356 9,900 -900 Level Cleveland Center
09:34 41.4431 -81.5417 242° Southwest 308 354 9,000 -1,680 Descending Cleveland Center
09:34 41.4283 -81.5717 237° Southwest 257 296 8,200 -1,800 Descending Cleveland Center
09:35 41.4069 -81.6269 243° Southwest 277 319 7,200 -1,200 Descending Cleveland Center
09:35 41.3942 -81.6625 244° Southwest 254 292 7,000 -1,200 Descending Cleveland Center
09:36 41.3750 -81.7094 241° Southwest 259 298 6,000 -1,920 Descending Cleveland Center
09:36 41.3642 -81.7450 248° West 255 293 5,100 -1,500 Descending Cleveland Center
09:37 41.3447 -81.7944 242° Southwest 259 298 4,500 -720 Descending Cleveland Center
09:37 41.3319 -81.8219 238° Southwest 235 270 4,400 -600 Descending Cleveland Center
09:38 41.3211 -81.8606 250° West 233 268 3,900 -1,140 Descending Cleveland Center
09:38 41.3314 -81.8911 294° West 194 223 3,300 -1,320 Descending Cleveland Center
09:39 41.3519 -81.9164 317° Northwest 169 194 2,600 -1,200 Descending Cleveland Center
09:39 41.3728 -81.9139 North 147 169 2,000 -1,140 Descending Cleveland Center
09:40 41.3981 -81.8731 50° Northeast 125 144 900 -1,140 Descending Cleveland Center
09:42 41.4000 -81.8500 48° Northeast  Level FlightAware Approximate